• Join FlightAware (Why Join?)
  • Login
  • US Flag GB Flag 
07:46 EDT


 

Airport Tracker/Info


-or-


 

Live Flight TrackerFlight Track Log ✈ GGN7280 ✈ 15-May-2013 ✈ CYYZ - KALB

Flight Track Log - Related Links

Times and Time Zones

All times are in EDT time to prevent confusion due to time zone crossing. See the GGN7280 flight status page for this flight to view local times or setup timezone preferences in your user account.

Time Position Orientation Groundspeed Altitude Reporting Facility
EDT Latitude Longitude Course Direction KTS MPH feet Rate Location/Type
10:05 43.6833 -79.6333 180° South 110 127 700  Level Toronto Center
10:06 43.6333 -79.6333 180° South 170 196 2,000 1,140 Climbing Toronto Center
10:07 43.5833 -79.6167 166° South 190 219 3,000 1,020 Climbing Toronto Center
10:08 43.5667 -79.5333 105° East 250 288 4,100 1,200 Climbing Toronto Center
10:09 43.5500 -79.4333 103° East 240 276 5,400 1,200 Climbing Toronto Center
10:10 43.5167 -79.3500 119° Southeast 240 276 6,600 1,140 Climbing Toronto Center
10:11 43.5000 -79.2667 105° East 250 288 7,700 660 Climbing Toronto Center
10:12 43.4833 -79.1667 103° East 270 311 8,000 480 Climbing Toronto Center
10:13 43.4500 -79.0667 115° Southeast 290 334 8,700 960 Climbing Toronto Center
10:14 43.4500 -78.9500 90° East 280 322 10,000 1,380 Climbing Toronto Center
10:15 43.4500 -78.8500 90° East 280 322 11,500 1,500 Climbing Toronto Center
10:16 43.4500 -78.7333 90° East 280 322 13,000 1,500 Climbing Toronto Center
10:17 43.4333 -78.6167 101° East 280 322 14,500 1,260 Climbing Toronto Center
10:17 43.4339 -78.6392 272° West 272 313 14,600 1,500 Climbing Cleveland Center
10:18 43.4217 -78.5311 99° East 277 319 16,400 1,500 Climbing Cleveland Center
10:19 43.4072 -78.4258 101° East 277 319 17,600 1,320 Climbing Cleveland Center
10:20 43.3947 -78.3147 99° East 282 325 19,100 1,260 Climbing Cleveland Center
10:21 43.3800 -78.2069 101° East 282 325 20,200 1,080 Climbing Cleveland Center
10:22 43.3672 -78.0958 99° East 288 331 21,300 960 Climbing Cleveland Center
10:23 43.3522 -77.9881 101° East 293 337 22,200 960 Climbing Cleveland Center
10:24 43.3372 -77.8772 101° East 293 337 23,300 1,080 Climbing Cleveland Center
10:25 43.3264 -77.7722 98° East 293 337 24,400 840 Climbing Cleveland Center
10:26 43.3133 -77.6644 99° East 288 331 25,000 300 Climbing Cleveland Center
10:27 43.3000 -77.5536 99° East 288 331 25,000  Level Cleveland Center
10:28 43.2822 -77.4347 102° East 299 344 25,100  Climbing Cleveland Center
10:29 43.2664 -77.3158 100° East 311 358 25,100  Level Cleveland Center
10:30 43.2528 -77.1997 99° East 311 358 25,100 -60 Level Cleveland Center
10:31 43.2369 -77.0836 101° East 311 358 25,000  Descending Cleveland Center
10:32 43.2228 -76.9675 99° East 311 358 25,100  Climbing Cleveland Center
10:33 43.1956 -76.7697 101° East 327 376 25,000 -60 Descending Boston Center
10:34 43.1789 -76.6603 102° East 314 361 25,000  Level Boston Center
10:35 43.1533 -76.5647 110° East 304 350 25,100  Climbing Boston Center
10:36 43.1153 -76.4625 117° Southeast 299 344 25,000  Descending Boston Center
10:37 43.0875 -76.3583 110° East 293 337 25,100  Climbing Boston Center
10:38 43.0767 -76.2467 98° East 288 331 25,100  Level Boston Center
10:39 43.0617 -76.1347 100° East 288 331 25,100  Level Boston Center
10:40 43.0442 -76.0258 102° East 288 331 25,100 -60 Level Boston Center
10:41 43.0331 -75.9172 98° East 288 331 25,000 -60 Descending Boston Center
10:42 43.0197 -75.8083 99° East 288 331 25,000 -300 Level Boston Center
10:43 43.0042 -75.6911 100° East 299 344 24,400 -720 Descending Boston Center
10:45 42.9725 -75.4794 101° East 309 356 22,900 -840 Descending Boston Center
10:46 42.9536 -75.3281 100° East 320 368 22,000 -960 Descending Boston Center
10:47 42.9419 -75.2083 98° East 320 368 21,000 -1,200 Descending Boston Center
10:48 42.9303 -75.0889 98° East 320 368 19,600 -1,560 Descending Boston Center
10:49 42.9203 -74.9750 97° East 315 362 17,900 -1,680 Descending Boston Center
10:50 42.9208 -74.8614 90° East 310 357 16,300 -1,860 Descending Boston Center
10:51 42.9214 -74.8247 89° East 289 333 15,600 -2,040 Descending Boston Center
10:51 42.9253 -74.7397 86° East 297 342 14,300 -1,740 Descending Boston Center
10:52 42.9325 -74.6947 78° East 287 330 13,500 -1,620 Descending Boston Center
10:52 42.9356 -74.6436 85° East 289 333 12,700 -1,680 Descending Boston Center
10:53 42.9408 -74.5872 83° East 284 327 11,800 -1,320 Descending Boston Center
10:53 42.9458 -74.5475 80° East 289 333 11,400 -840 Descending Boston Center
10:54 42.9531 -74.4797 82° East 283 326 11,000 -720 Descending Boston Center
10:54 42.9542 -74.4286 88° East 289 333 10,700 -1,140 Descending Boston Center
10:55 42.9531 -74.3633 91° East 291 335 9,900 -1,440 Descending Boston Center
10:55 42.9539 -74.3094 89° East 289 333 9,300 -1,320 Descending Boston Center
10:56 42.9550 -74.2528 88° East 296 341 8,600 -1,200 Descending Boston Center
10:56 42.9578 -74.2075 85° East 289 333 8,100 -1,320 Descending Boston Center
10:57 42.9586 -74.1422 89° East 286 329 7,300 -1,440 Descending Boston Center
10:57 42.9636 -74.0969 81° East 284 327 6,700 -1,380 Descending Boston Center
10:58 42.9686 -74.0433 83° East 263 303 5,900 -1,320 Descending Boston Center
10:58 42.9711 -74.0064 85° East 271 312 5,400 -1,200 Descending Boston Center
10:59 42.9761 -73.9469 83° East 258 297 4,700 -1,200 Descending Boston Center
10:59 42.9789 -73.8989 85° East 260 299 4,200 -1,140 Descending Boston Center
11:00 42.9667 -73.8589 113° Southeast 233 268 3,600 -900 Descending Boston Center
11:00 42.9483 -73.8414 145° Southeast 207 238 3,300 -720 Descending Boston Center
11:01 42.9236 -73.8181 145° Southeast 171 197 2,900 -540 Descending Boston Center
11:01 42.9069 -73.8119 165° South 177 204 2,800 -300 Descending Boston Center
11:02 42.8797 -73.8142 183° South 141 162 2,600 -420 Descending Boston Center
11:02 42.8672 -73.8111 170° South 155 178 2,400 -720 Descending Boston Center
11:03 42.8403 -73.8133 183° South 138 159 1,900 -780 Descending Boston Center
11:04 42.8047 -73.8097 176° South 120 138 1,200 -660 Descending Boston Center
11:05 42.7694 -73.8089 179° South 118 136 600 -600 Descending Boston Center
11:07 42.7491 -73.8020 North  Level Estimated
11:14 42.7491 -73.8020 North  Level Estimated